Terminal Aerodrome Forecast
Issued by NWS

Home | Current Version | Previous Version | Text Only | Print | Product List | Glossary On
Versions: 1 2 3 4 5 6 7 8 9 10 11 12 13 14 15 16 17 18 19
000
FTUS43 KBIS 272300
TAFDIK
TAF
KDIK 272338Z 2800/2824 17010KT P6SM SCT250
     FM280900 27007KT P6SM SCT040 BKN120
     FM281600 30013KT P6SM SCT025 BKN050=

USA.gov is the U.S. government's official web portal to all federal, state and local government web resources and services.